Time;durP1;ratioP1;P1;durP2;ratioP2;P2;SDS_P1;SDS_P2;PMS_P1;PMS_P2;Temp;Humidity;BMP_temperature;BMP_pressure;BME280_temperature;BME280_humidity;BME280_pressure;Samples;Min_cycle;Max_cycle;Signal;HPM_P1;HPM_P2
2022/12/18 00:01:38;;;;;;;54.25;23.83;;;;;;;;;;5026789;28;20022;-79
2022/12/18 00:04:07;;;;;;;60.97;24.65;;;;;;;;;;5025177;28;20022;-79
2022/12/18 00:06:35;;;;;;;63.05;25.63;;;;;;;;;;5007502;28;20022;-80
2022/12/18 00:09:01;;;;;;;66.03;26.65;;;;;;;;;;5012438;28;20045;-80
2022/12/18 00:11:29;;;;;;;61.90;25.73;;;;;;;;;;5026520;28;20033;-80
2022/12/18 00:13:56;;;;;;;66.13;26.38;;;;;;;;;;5009747;28;20026;-83
2022/12/18 00:16:23;;;;;;;65.13;25.98;;;;;;;;;;5027644;28;20030;-78
2022/12/18 00:18:50;;;;;;;59.33;24.45;;;;;;;;;;5026699;28;20481;-80
2022/12/18 00:21:16;;;;;;;72.15;27.08;;;;;;;;;;5026102;28;20018;-78
2022/12/18 00:23:43;;;;;;;65.68;24.98;;;;;;;;;;5026486;28;20030;-78
2022/12/18 00:26:14;;;;;;;71.60;26.23;;;;;;;;;;5025778;28;20476;-80
2022/12/18 00:28:40;;;;;;;57.67;24.05;;;;;;;;;;5017631;28;20386;-80
2022/12/18 00:31:08;;;;;;;64.30;24.80;;;;;;;;;;5026744;28;20025;-78
2022/12/18 00:33:35;;;;;;;64.07;25.20;;;;;;;;;;5028032;28;20455;-80
2022/12/18 00:36:02;;;;;;;64.18;25.13;;;;;;;;;;5008537;28;20457;-79
2022/12/18 00:38:28;;;;;;;59.90;23.85;;;;;;;;;;5024712;28;20030;-80
2022/12/18 00:40:54;;;;;;;61.67;24.15;;;;;;;;;;5023253;28;20030;-80
2022/12/18 00:43:20;;;;;;;66.30;27.33;;;;;;;;;;5025106;28;20053;-79
2022/12/18 00:45:46;;;;;;;72.55;24.90;;;;;;;;;;5025496;28;20022;-78
2022/12/18 00:48:12;;;;;;;60.20;23.05;;;;;;;;;;5025142;28;20030;-79
2022/12/18 00:50:38;;;;;;;62.92;25.08;;;;;;;;;;5023727;28;20496;-81
2022/12/18 00:53:04;;;;;;;60.92;23.98;;;;;;;;;;5008321;28;20468;-79
2022/12/18 00:55:31;;;;;;;60.05;22.05;;;;;;;;;;5008755;28;20022;-80
2022/12/18 00:57:57;;;;;;;63.72;23.05;;;;;;;;;;5025810;28;20034;-79
2022/12/18 01:00:23;;;;;;;53.30;22.92;;;;;;;;;;5025313;28;20022;-79
2022/12/18 01:02:49;;;;;;;61.17;23.33;;;;;;;;;;5025937;28;20045;-80
2022/12/18 01:05:15;;;;;;;60.05;23.67;;;;;;;;;;5024075;28;20026;-79
2022/12/18 01:07:52;;;;;;;53.13;20.92;;;;;;;;;;5025691;28;20018;-80
2022/12/18 01:10:18;;;;;;;60.95;23.45;;;;;;;;;;5011087;28;20034;-79
2022/12/18 01:12:44;;;;;;;64.47;23.83;;;;;;;;;;5008255;28;20029;-80
2022/12/18 01:15:11;;;;;;;59.28;23.30;;;;;;;;;;5021128;28;20075;-80
2022/12/18 01:17:37;;;;;;;66.95;23.45;;;;;;;;;;5016573;28;20034;-81
2022/12/18 01:20:03;;;;;;;62.05;23.63;;;;;;;;;;5016411;28;20362;-81
2022/12/18 01:22:29;;;;;;;57.05;22.98;;;;;;;;;;5017750;28;20431;-80
2022/12/18 01:24:55;;;;;;;59.85;23.27;;;;;;;;;;5017967;28;20025;-81
2022/12/18 01:27:21;;;;;;;64.43;25.02;;;;;;;;;;5020443;28;20033;-80
2022/12/18 01:29:47;;;;;;;60.08;24.52;;;;;;;;;;5017714;28;20026;-81
2022/12/18 01:32:13;;;;;;;67.20;25.45;;;;;;;;;;5018972;28;20026;-81
2022/12/18 01:34:39;;;;;;;58.08;23.13;;;;;;;;;;5017084;28;20034;-83
2022/12/18 01:37:06;;;;;;;55.53;22.52;;;;;;;;;;5017551;28;20041;-82
2022/12/18 01:39:32;;;;;;;54.00;21.83;;;;;;;;;;5018246;28;20026;-81
2022/12/18 01:42:03;;;;;;;63.50;24.52;;;;;;;;;;5017923;28;20411;-82
2022/12/18 01:44:48;;;;;;;57.15;23.80;;;;;;;;;;5016060;28;20522;-80
2022/12/18 01:47:20;;;;;;;65.72;25.52;;;;;;;;;;5003207;28;20029;-81
2022/12/18 01:49:46;;;;;;;61.22;24.95;;;;;;;;;;5003176;28;20488;-81
2022/12/18 01:52:13;;;;;;;63.20;23.52;;;;;;;;;;5017533;28;20034;-80
2022/12/18 01:54:40;;;;;;;59.97;25.27;;;;;;;;;;5018077;28;20424;-81
2022/12/18 01:57:06;;;;;;;74.22;26.42;;;;;;;;;;5016536;28;20026;-81
2022/12/18 01:59:36;;;;;;;62.97;24.83;;;;;;;;;;5021164;28;20026;-82
2022/12/18 02:02:03;;;;;;;65.85;26.98;;;;;;;;;;5018140;28;20022;-80
2022/12/18 02:04:29;;;;;;;69.00;26.70;;;;;;;;;;5019469;28;20053;-81
2022/12/18 02:07:09;;;;;;;65.85;26.85;;;;;;;;;;5024434;28;20393;-81
2022/12/18 02:09:41;;;;;;;67.22;26.88;;;;;;;;;;5021407;28;20037;-81
2022/12/18 02:12:25;;;;;;;62.80;25.70;;;;;;;;;;5022155;28;20022;-81
2022/12/18 02:15:20;;;;;;;56.80;23.98;;;;;;;;;;5022881;28;20037;-81
2022/12/18 02:17:50;;;;;;;62.35;24.58;;;;;;;;;;4984688;28;20065;-82
2022/12/18 02:20:32;;;;;;;71.70;28.35;;;;;;;;;;5021393;28;20045;-81
2022/12/18 02:22:58;;;;;;;63.33;26.90;;;;;;;;;;5021340;28;20036;-81
2022/12/18 02:25:30;;;;;;;64.47;26.15;;;;;;;;;;5021158;28;20060;-81
2022/12/18 02:27:58;;;;;;;76.22;28.33;;;;;;;;;;5023037;28;20152;-80
2022/12/18 02:30:25;;;;;;;63.97;26.17;;;;;;;;;;5025643;28;20030;-80
2022/12/18 02:32:52;;;;;;;69.85;28.50;;;;;;;;;;5035749;28;20024;-81
2022/12/18 02:35:22;;;;;;;77.70;29.25;;;;;;;;;;5015017;28;20037;-82
2022/12/18 02:37:48;;;;;;;71.32;28.60;;;;;;;;;;5023614;28;20095;-81
2022/12/18 02:40:16;;;;;;;69.95;26.88;;;;;;;;;;5020713;28;20038;-82
2022/12/18 02:42:42;;;;;;;75.78;27.73;;;;;;;;;;5004532;28;20021;-81
2022/12/18 02:45:08;;;;;;;74.68;28.98;;;;;;;;;;5020228;28;20042;-80
2022/12/18 02:47:36;;;;;;;72.80;27.73;;;;;;;;;;5025830;28;20044;-81
2022/12/18 02:50:03;;;;;;;73.13;29.30;;;;;;;;;;5021694;28;20087;-78
2022/12/18 02:52:38;;;;;;;64.18;26.33;;;;;;;;;;5021272;28;20030;-78
2022/12/18 02:55:04;;;;;;;62.03;25.63;;;;;;;;;;5020856;28;20235;-80
2022/12/18 02:57:33;;;;;;;73.63;29.33;;;;;;;;;;5026096;28;20034;-80
2022/12/18 03:00:07;;;;;;;74.28;27.95;;;;;;;;;;5023967;28;20022;-80
2022/12/18 03:02:49;;;;;;;69.05;26.90;;;;;;;;;;5023052;28;20389;-81
2022/12/18 03:05:32;;;;;;;71.35;29.00;;;;;;;;;;5002042;28;20034;-81
2022/12/18 03:08:02;;;;;;;67.80;26.30;;;;;;;;;;5004686;28;20041;-82
2022/12/18 03:10:30;;;;;;;69.03;27.33;;;;;;;;;;5005104;28;20393;-81
2022/12/18 03:13:01;;;;;;;67.18;27.38;;;;;;;;;;5020747;28;20033;-82
2022/12/18 03:15:38;;;;;;;68.13;25.77;;;;;;;;;;5022804;28;20179;-81
2022/12/18 03:18:06;;;;;;;73.35;27.30;;;;;;;;;;5018836;28;20034;-81
2022/12/18 03:20:33;;;;;;;65.63;26.23;;;;;;;;;;5020209;28;20109;-81
2022/12/18 03:23:03;;;;;;;70.03;26.50;;;;;;;;;;5021138;28;20419;-81
2022/12/18 03:25:31;;;;;;;58.88;25.27;;;;;;;;;;5018467;28;20102;-81
2022/12/18 03:28:00;;;;;;;67.38;26.63;;;;;;;;;;5018842;28;20483;-81
2022/12/18 03:30:27;;;;;;;71.50;27.70;;;;;;;;;;5005548;28;20034;-81
2022/12/18 03:32:57;;;;;;;65.47;25.15;;;;;;;;;;5004367;28;20042;-80
2022/12/18 03:35:27;;;;;;;66.50;26.15;;;;;;;;;;5022698;28;20056;-81
2022/12/18 03:37:53;;;;;;;69.78;28.23;;;;;;;;;;5036992;28;20038;-81
2022/12/18 03:40:20;;;;;;;69.70;26.95;;;;;;;;;;5019833;28;20128;-81
2022/12/18 03:42:57;;;;;;;66.10;26.23;;;;;;;;;;5037199;28;20040;-80
2022/12/18 03:45:25;;;;;;;63.58;25.88;;;;;;;;;;5024517;28;20136;-80
2022/12/18 03:47:58;;;;;;;69.90;27.10;;;;;;;;;;5019935;28;20081;-81
2022/12/18 03:50:46;;;;;;;67.95;26.98;;;;;;;;;;5019392;28;20109;-81
2022/12/18 03:53:44;;;;;;;67.88;25.58;;;;;;;;;;5019376;28;20078;-81
2022/12/18 03:56:12;;;;;;;64.80;27.15;;;;;;;;;;5008222;28;20044;-81
2022/12/18 03:58:41;;;;;;;65.40;25.90;;;;;;;;;;5021135;28;20038;-81
2022/12/18 04:01:08;;;;;;;70.25;26.23;;;;;;;;;;5018975;28;20445;-81
2022/12/18 04:03:35;;;;;;;62.05;25.95;;;;;;;;;;5018599;28;20030;-80
2022/12/18 04:06:01;;;;;;;62.67;26.55;;;;;;;;;;5000346;28;20029;-81
2022/12/18 04:08:27;;;;;;;67.45;26.05;;;;;;;;;;5000199;28;20030;-81
2022/12/18 04:10:53;;;;;;;65.60;25.10;;;;;;;;;;5017321;28;20029;-81
2022/12/18 04:13:29;;;;;;;67.32;25.90;;;;;;;;;;5018874;28;20123;-80
2022/12/18 04:15:55;;;;;;;69.15;24.60;;;;;;;;;;5018245;28;20034;-78
2022/12/18 04:18:21;;;;;;;63.25;26.20;;;;;;;;;;5023015;28;20034;-79
2022/12/18 04:20:47;;;;;;;61.00;24.30;;;;;;;;;;5024723;28;20022;-81
2022/12/18 04:23:14;;;;;;;64.75;25.95;;;;;;;;;;5028925;28;20038;-81
2022/12/18 04:25:40;;;;;;;59.58;24.17;;;;;;;;;;5024635;28;20026;-81
2022/12/18 04:28:06;;;;;;;63.33;25.30;;;;;;;;;;5031772;28;20022;-81
2022/12/18 04:30:32;;;;;;;59.38;23.55;;;;;;;;;;5036130;28;20048;-81
2022/12/18 04:32:58;;;;;;;66.40;25.98;;;;;;;;;;5019868;28;20056;-81
2022/12/18 04:35:24;;;;;;;61.17;24.25;;;;;;;;;;5021544;28;20030;-81
2022/12/18 04:37:50;;;;;;;62.55;24.27;;;;;;;;;;5019315;28;20056;-80
2022/12/18 04:40:17;;;;;;;63.42;24.75;;;;;;;;;;5021104;28;20033;-80
2022/12/18 04:42:43;;;;;;;60.80;22.42;;;;;;;;;;5021263;28;20178;-81
2022/12/18 04:45:09;;;;;;;59.13;25.75;;;;;;;;;;5023567;28;20045;-80
2022/12/18 04:47:35;;;;;;;58.10;24.02;;;;;;;;;;5027898;28;20033;-82
2022/12/18 04:50:04;;;;;;;58.72;23.67;;;;;;;;;;5025937;28;20034;-81
2022/12/18 04:52:30;;;;;;;60.30;22.73;;;;;;;;;;5020613;28;20022;-81
2022/12/18 04:54:56;;;;;;;55.40;22.15;;;;;;;;;;5017897;28;20485;-79
2022/12/18 04:57:22;;;;;;;55.03;22.33;;;;;;;;;;5015958;28;20030;-81
2022/12/18 05:00:11;;;;;;;63.58;24.73;;;;;;;;;;5023675;28;20034;-81
2022/12/18 05:02:40;;;;;;;57.13;24.50;;;;;;;;;;5023589;28;20073;-83
2022/12/18 05:05:06;;;;;;;59.83;22.45;;;;;;;;;;5019710;28;20389;-81
2022/12/18 05:07:32;;;;;;;67.35;26.05;;;;;;;;;;5018091;28;20045;-81
2022/12/18 05:09:58;;;;;;;59.65;22.27;;;;;;;;;;5000552;28;20175;-81
2022/12/18 05:12:24;;;;;;;64.25;23.55;;;;;;;;;;5017921;28;20353;-81
2022/12/18 05:14:50;;;;;;;61.58;22.98;;;;;;;;;;5017299;28;20408;-81
2022/12/18 05:17:16;;;;;;;54.83;22.40;;;;;;;;;;5017285;28;20369;-81
2022/12/18 05:19:43;;;;;;;60.38;24.70;;;;;;;;;;5018182;28;20026;-82
2022/12/18 05:22:09;;;;;;;50.60;21.48;;;;;;;;;;5019408;28;20090;-82
2022/12/18 05:24:35;;;;;;;62.53;23.85;;;;;;;;;;5000152;28;20034;-81
2022/12/18 05:27:01;;;;;;;54.10;23.02;;;;;;;;;;5017544;28;20034;-80
2022/12/18 05:29:28;;;;;;;50.03;21.73;;;;;;;;;;5019160;28;20061;-80
2022/12/18 05:31:54;;;;;;;55.20;21.98;;;;;;;;;;5017262;28;20433;-81
2022/12/18 05:34:20;;;;;;;59.92;22.55;;;;;;;;;;5017624;28;20053;-81
2022/12/18 05:36:46;;;;;;;59.95;24.50;;;;;;;;;;5020044;28;20370;-80
2022/12/18 05:39:12;;;;;;;49.90;21.70;;;;;;;;;;5018681;28;20484;-80
2022/12/18 05:41:38;;;;;;;58.15;23.42;;;;;;;;;;5021288;28;20022;-81
2022/12/18 05:44:04;;;;;;;50.20;20.92;;;;;;;;;;5020826;28;20064;-80
2022/12/18 05:46:30;;;;;;;50.03;20.80;;;;;;;;;;5021063;28;20057;-79
2022/12/18 05:48:59;;;;;;;54.40;22.48;;;;;;;;;;5020473;28;20029;-80
2022/12/18 05:51:25;;;;;;;50.50;21.38;;;;;;;;;;5020264;28;20076;-79
2022/12/18 05:53:52;;;;;;;49.55;20.60;;;;;;;;;;5019523;28;20052;-80
2022/12/18 05:56:19;;;;;;;52.83;21.25;;;;;;;;;;5002656;28;20456;-81
2022/12/18 05:58:46;;;;;;;58.42;21.60;;;;;;;;;;5020000;28;20022;-80
2022/12/18 06:01:13;;;;;;;49.92;21.42;;;;;;;;;;5003225;28;20048;-79
2022/12/18 06:03:40;;;;;;;48.15;21.10;;;;;;;;;;5019601;28;20022;-80
2022/12/18 06:06:26;;;;;;;47.10;21.42;;;;;;;;;;5019962;28;20088;-80
2022/12/18 06:08:52;;;;;;;43.45;19.33;;;;;;;;;;5019535;28;20504;-80
2022/12/18 06:11:20;;;;;;;45.92;20.48;;;;;;;;;;5002914;28;20484;-80
2022/12/18 06:13:47;;;;;;;44.10;19.55;;;;;;;;;;5019994;28;20100;-82
2022/12/18 06:16:13;;;;;;;48.15;20.38;;;;;;;;;;5022702;28;20123;-80
2022/12/18 06:18:39;;;;;;;47.25;19.80;;;;;;;;;;5023339;28;20045;-80
2022/12/18 06:21:05;;;;;;;47.85;19.67;;;;;;;;;;5007597;28;20036;-80
2022/12/18 06:23:31;;;;;;;47.08;20.60;;;;;;;;;;5022531;28;20029;-81
2022/12/18 06:25:57;;;;;;;53.60;20.85;;;;;;;;;;5015736;28;20022;-81
2022/12/18 06:28:23;;;;;;;48.80;20.10;;;;;;;;;;5008586;28;20530;-81
2022/12/18 06:30:50;;;;;;;48.78;20.70;;;;;;;;;;5009308;28;20060;-81
2022/12/18 06:33:16;;;;;;;41.58;18.17;;;;;;;;;;5008430;28;20048;-81
2022/12/18 06:35:42;;;;;;;48.60;19.67;;;;;;;;;;5007855;28;20022;-81
2022/12/18 06:38:08;;;;;;;49.08;19.83;;;;;;;;;;5007711;28;20550;-82
2022/12/18 06:40:34;;;;;;;45.60;19.17;;;;;;;;;;5026198;28;20030;-82
2022/12/18 06:43:01;;;;;;;40.70;17.92;;;;;;;;;;5025311;28;20033;-80
2022/12/18 06:45:27;;;;;;;50.15;20.52;;;;;;;;;;5027897;28;20026;-81
2022/12/18 06:47:54;;;;;;;55.70;21.35;;;;;;;;;;5025837;28;20026;-80
2022/12/18 06:50:20;;;;;;;48.38;20.63;;;;;;;;;;5024299;28;20022;-81
2022/12/18 06:52:46;;;;;;;51.00;20.48;;;;;;;;;;5025384;28;20045;-81
2022/12/18 06:55:12;;;;;;;49.92;20.50;;;;;;;;;;5026414;28;20030;-81
2022/12/18 06:57:38;;;;;;;49.17;18.75;;;;;;;;;;5026836;28;20041;-82
2022/12/18 07:00:06;;;;;;;51.55;20.08;;;;;;;;;;5027130;28;20022;-82
2022/12/18 07:02:35;;;;;;;48.35;20.48;;;;;;;;;;5028385;28;20130;-82
2022/12/18 07:05:01;;;;;;;52.85;21.88;;;;;;;;;;5025307;28;20042;-82
2022/12/18 07:07:34;;;;;;;47.55;19.17;;;;;;;;;;5026091;28;20034;-82
2022/12/18 07:10:00;;;;;;;51.78;21.00;;;;;;;;;;5032187;28;20041;-81
2022/12/18 07:12:27;;;;;;;46.88;19.77;;;;;;;;;;5038411;28;20026;-82
2022/12/18 07:14:53;;;;;;;50.50;20.05;;;;;;;;;;5038506;28;20017;-82
2022/12/18 07:17:19;;;;;;;48.78;19.30;;;;;;;;;;5041231;28;20014;-81
2022/12/18 07:19:45;;;;;;;50.92;20.63;;;;;;;;;;5038882;28;20025;-81
2022/12/18 07:22:11;;;;;;;55.33;20.60;;;;;;;;;;5030891;28;20030;-81
2022/12/18 07:24:38;;;;;;;50.03;19.50;;;;;;;;;;5025803;28;20034;-82
2022/12/18 07:27:04;;;;;;;49.20;19.85;;;;;;;;;;5020740;28;20038;-80
2022/12/18 07:29:30;;;;;;;49.78;20.25;;;;;;;;;;5010754;28;20033;-81
2022/12/18 07:31:56;;;;;;;46.45;20.92;;;;;;;;;;5027133;28;20064;-82
2022/12/18 07:34:22;;;;;;;48.40;19.83;;;;;;;;;;5027413;28;20033;-81
2022/12/18 07:36:48;;;;;;;51.47;20.05;;;;;;;;;;5023686;28;20026;-81
2022/12/18 07:39:15;;;;;;;45.17;19.15;;;;;;;;;;4989754;28;20434;-80
2022/12/18 07:42:30;;;;;;;38.65;17.35;;;;;;;;;;5018657;28;20093;-80
2022/12/18 07:44:30;;;;;;;49.60;20.83;;;;;;;;;;5015577;28;20030;-80
2022/12/18 07:46:56;;;;;;;44.65;19.02;;;;;;;;;;5014622;28;20038;-80
2022/12/18 07:49:22;;;;;;;43.83;18.17;;;;;;;;;;5020706;28;20040;-80
2022/12/18 07:51:48;;;;;;;47.05;19.83;;;;;;;;;;5002927;28;20033;-80
2022/12/18 07:54:15;;;;;;;47.30;19.52;;;;;;;;;;5022932;28;20034;-80
2022/12/18 07:56:41;;;;;;;46.00;18.98;;;;;;;;;;5002777;28;20022;-80
2022/12/18 07:59:07;;;;;;;45.03;19.13;;;;;;;;;;5003638;28;20030;-79
2022/12/18 08:01:33;;;;;;;49.47;19.98;;;;;;;;;;5002979;28;20022;-80
2022/12/18 08:04:00;;;;;;;42.00;17.55;;;;;;;;;;5022448;28;20033;-81
2022/12/18 08:06:26;;;;;;;41.28;18.80;;;;;;;;;;5021544;28;20039;-80
2022/12/18 08:08:53;;;;;;;48.28;19.35;;;;;;;;;;5021370;28;20038;-80
2022/12/18 08:11:19;;;;;;;39.03;16.92;;;;;;;;;;5021806;28;20022;-81
2022/12/18 08:13:45;;;;;;;41.25;17.83;;;;;;;;;;5021607;28;20029;-82
2022/12/18 08:16:11;;;;;;;43.25;18.48;;;;;;;;;;5023860;28;20030;-80
2022/12/18 08:18:37;;;;;;;40.70;17.80;;;;;;;;;;5029036;28;20044;-80
2022/12/18 08:21:11;;;;;;;38.38;17.20;;;;;;;;;;5037316;28;20017;-80
2022/12/18 08:23:37;;;;;;;36.47;16.08;;;;;;;;;;5038559;28;20026;-81
2022/12/18 08:26:03;;;;;;;39.05;17.20;;;;;;;;;;5025003;28;20499;-79
2022/12/18 08:28:29;;;;;;;35.13;15.55;;;;;;;;;;5008098;28;20025;-79
2022/12/18 08:30:55;;;;;;;39.42;17.35;;;;;;;;;;5024395;28;20045;-79
2022/12/18 08:33:21;;;;;;;37.45;16.75;;;;;;;;;;5023966;28;20016;-78
2022/12/18 08:35:48;;;;;;;34.45;14.73;;;;;;;;;;5018860;28;20057;-78
2022/12/18 08:38:14;;;;;;;45.42;18.35;;;;;;;;;;5018009;28;20061;-78
2022/12/18 08:40:40;;;;;;;40.53;16.50;;;;;;;;;;5020274;28;20026;-84
2022/12/18 08:45:57;;;;;;;38.22;16.50;;;;;;;;;;5005852;28;20040;-82
2022/12/18 08:48:23;;;;;;;35.45;15.85;;;;;;;;;;5022570;28;20254;-79
2022/12/18 08:50:59;;;;;;;35.50;15.60;;;;;;;;;;5023235;28;20057;-82
2022/12/18 08:53:29;;;;;;;32.97;14.57;;;;;;;;;;5002264;28;20036;-82
2022/12/18 08:55:56;;;;;;;33.33;14.63;;;;;;;;;;5000658;28;20478;-82
2022/12/18 08:58:22;;;;;;;35.70;15.60;;;;;;;;;;5009850;28;20017;-82
2022/12/18 09:00:49;;;;;;;34.05;16.13;;;;;;;;;;5032952;28;20028;-80
2022/12/18 09:03:17;;;;;;;37.63;17.08;;;;;;;;;;5032775;28;20054;-84
2022/12/18 09:05:47;;;;;;;35.92;16.27;;;;;;;;;;5036123;28;20034;-80
2022/12/18 09:08:13;;;;;;;33.65;15.13;;;;;;;;;;5027236;28;20026;-81
2022/12/18 09:10:43;;;;;;;33.65;15.70;;;;;;;;;;5018966;28;20053;-81
2022/12/18 09:13:10;;;;;;;35.40;16.13;;;;;;;;;;5002254;28;20030;-82
2022/12/18 09:15:41;;;;;;;33.35;14.95;;;;;;;;;;5001210;28;20033;-81
2022/12/18 09:18:08;;;;;;;35.55;16.23;;;;;;;;;;5022197;28;20029;-82
2022/12/18 09:20:34;;;;;;;36.88;15.98;;;;;;;;;;5018080;28;20037;-81
2022/12/18 09:23:00;;;;;;;32.42;16.30;;;;;;;;;;5019184;28;20108;-82
2022/12/18 09:25:31;;;;;;;30.75;14.98;;;;;;;;;;5020295;28;20105;-83
2022/12/18 09:27:57;;;;;;;32.97;15.40;;;;;;;;;;5003209;28;20113;-81
2022/12/18 09:30:23;;;;;;;35.60;14.45;;;;;;;;;;5018687;28;20022;-82
2022/12/18 09:32:49;;;;;;;30.95;14.80;;;;;;;;;;5000235;28;20473;-81
2022/12/18 09:35:16;;;;;;;36.20;14.90;;;;;;;;;;5017372;28;20404;-81
2022/12/18 09:37:42;;;;;;;37.33;16.17;;;;;;;;;;5018325;28;20038;-81
2022/12/18 09:40:14;;;;;;;37.42;16.25;;;;;;;;;;5020179;28;20469;-83
2022/12/18 09:42:40;;;;;;;41.22;16.85;;;;;;;;;;5019094;28;20041;-80
2022/12/18 09:45:12;;;;;;;36.35;15.00;;;;;;;;;;5019722;28;20026;-81
2022/12/18 09:47:39;;;;;;;38.40;16.17;;;;;;;;;;5021573;28;20034;-78
2022/12/18 09:50:15;;;;;;;37.30;16.13;;;;;;;;;;5021494;28;20033;-78
2022/12/18 09:52:43;;;;;;;32.55;14.55;;;;;;;;;;5005061;28;20033;-81
2022/12/18 09:55:12;;;;;;;33.85;14.68;;;;;;;;;;5012162;28;20025;-81
2022/12/18 09:57:42;;;;;;;36.80;15.98;;;;;;;;;;5000778;28;20025;-81
2022/12/18 10:00:19;;;;;;;30.73;14.23;;;;;;;;;;5020050;28;20028;-81
2022/12/18 10:02:46;;;;;;;31.23;13.77;;;;;;;;;;5000303;28;20105;-83
2022/12/18 10:05:16;;;;;;;36.88;16.75;;;;;;;;;;4999973;28;20068;-81
2022/12/18 10:07:55;;;;;;;34.83;15.70;;;;;;;;;;5002971;28;20022;-82
2022/12/18 10:10:24;;;;;;;30.77;13.93;;;;;;;;;;5000090;28;20052;-82
2022/12/18 10:12:56;;;;;;;34.92;15.77;;;;;;;;;;5002711;28;20064;-81
2022/12/18 10:15:30;;;;;;;35.72;16.30;;;;;;;;;;5027035;28;20034;-83
2022/12/18 10:18:06;;;;;;;34.00;15.55;;;;;;;;;;5019190;28;20030;-80
2022/12/18 10:20:32;;;;;;;32.65;14.40;;;;;;;;;;5004891;28;20061;-80
2022/12/18 10:23:16;;;;;;;32.75;14.98;;;;;;;;;;5018422;28;20034;-81
2022/12/18 10:26:03;;;;;;;36.63;15.15;;;;;;;;;;5021952;28;20026;-80
2022/12/18 10:28:30;;;;;;;37.22;15.73;;;;;;;;;;5021446;28;20022;-81
2022/12/18 10:30:56;;;;;;;33.13;15.38;;;;;;;;;;5023933;28;20006;-81
2022/12/18 10:33:24;;;;;;;30.75;14.90;;;;;;;;;;5003493;28;20428;-81
2022/12/18 10:35:51;;;;;;;34.40;14.88;;;;;;;;;;5003301;28;20412;-81
2022/12/18 10:38:17;;;;;;;39.65;16.42;;;;;;;;;;5022310;28;20503;-81
2022/12/18 10:40:53;;;;;;;36.25;15.20;;;;;;;;;;5023470;28;20117;-81
2022/12/18 10:43:21;;;;;;;30.58;14.15;;;;;;;;;;5012564;28;20514;-80
2022/12/18 10:46:01;;;;;;;32.38;14.32;;;;;;;;;;5015285;28;20054;-81
2022/12/18 10:48:27;;;;;;;29.77;13.15;;;;;;;;;;5017209;28;20026;-82
2022/12/18 10:50:54;;;;;;;34.22;14.70;;;;;;;;;;5028511;28;20089;-81
2022/12/18 10:53:23;;;;;;;33.92;14.77;;;;;;;;;;5043864;28;20025;-82
2022/12/18 10:55:51;;;;;;;30.73;14.85;;;;;;;;;;5048431;28;20034;-82
2022/12/18 10:58:33;;;;;;;33.90;14.88;;;;;;;;;;5049761;28;20072;-82
2022/12/18 11:01:24;;;;;;;34.45;14.88;;;;;;;;;;5047261;28;20026;-83
2022/12/18 11:04:26;;;;;;;28.85;13.60;;;;;;;;;;5024405;28;20057;-82
2022/12/18 11:06:59;;;;;;;31.88;14.70;;;;;;;;;;5014355;28;20034;-82
2022/12/18 11:09:35;;;;;;;30.95;13.93;;;;;;;;;;5028849;28;20029;-81
2022/12/18 11:12:07;;;;;;;30.65;14.88;;;;;;;;;;5026653;28;20042;-80
2022/12/18 11:14:34;;;;;;;34.40;15.45;;;;;;;;;;5028870;28;20022;-80
2022/12/18 11:17:01;;;;;;;32.50;14.70;;;;;;;;;;5028387;28;20484;-82
2022/12/18 11:19:34;;;;;;;34.42;14.77;;;;;;;;;;5029629;28;20034;-83
2022/12/18 11:22:02;;;;;;;31.30;14.45;;;;;;;;;;5028365;28;20033;-81
2022/12/18 11:24:32;;;;;;;28.63;14.05;;;;;;;;;;5028146;28;20026;-83
2022/12/18 11:27:01;;;;;;;31.48;14.68;;;;;;;;;;5026502;28;20029;-80
2022/12/18 11:29:37;;;;;;;31.60;14.63;;;;;;;;;;5027642;28;20037;-80
2022/12/18 11:32:15;;;;;;;31.10;14.43;;;;;;;;;;5028723;28;20030;-80
2022/12/18 11:34:47;;;;;;;32.38;15.00;;;;;;;;;;5027429;28;20030;-81
2022/12/18 11:37:14;;;;;;;30.73;14.63;;;;;;;;;;5026586;28;20030;-81
2022/12/18 11:39:46;;;;;;;34.08;15.27;;;;;;;;;;5028891;28;20296;-81
2022/12/18 11:42:20;;;;;;;33.63;14.52;;;;;;;;;;5025807;28;20042;-81
2022/12/18 11:44:49;;;;;;;28.20;13.70;;;;;;;;;;5015519;28;20037;-82
2022/12/18 11:47:34;;;;;;;31.80;14.25;;;;;;;;;;5011375;28;20492;-82
2022/12/18 11:50:02;;;;;;;26.98;13.27;;;;;;;;;;5009934;28;20050;-82
2022/12/18 11:52:39;;;;;;;26.88;12.43;;;;;;;;;;5016125;28;20049;-82
2022/12/18 11:55:11;;;;;;;28.45;12.57;;;;;;;;;;5023864;28;20040;-83
2022/12/18 11:57:37;;;;;;;26.52;13.38;;;;;;;;;;5020357;28;20018;-82
2022/12/18 12:00:17;;;;;;;27.38;12.88;;;;;;;;;;5027526;28;20030;-81
2022/12/18 12:03:10;;;;;;;35.72;16.33;;;;;;;;;;5024004;28;20026;-82
2022/12/18 12:05:48;;;;;;;34.30;14.70;;;;;;;;;;4997732;28;20038;-83
2022/12/18 12:08:33;;;;;;;31.15;14.40;;;;;;;;;;5021802;28;20088;-83
2022/12/18 12:10:59;;;;;;;31.67;14.02;;;;;;;;;;5023999;28;20064;-81
2022/12/18 12:13:25;;;;;;;38.65;16.35;;;;;;;;;;5031978;28;20038;-84
2022/12/18 12:16:10;;;;;;;29.75;14.82;;;;;;;;;;5036871;28;20087;-81
2022/12/18 12:18:39;;;;;;;34.15;14.43;;;;;;;;;;5021860;28;20037;-82
2022/12/18 12:21:16;;;;;;;32.40;14.10;;;;;;;;;;5023352;28;20141;-84
2022/12/18 12:23:59;;;;;;;31.85;14.27;;;;;;;;;;5005046;28;20182;-82
2022/12/18 12:26:31;;;;;;;34.40;15.70;;;;;;;;;;5000543;28;20038;-81
2022/12/18 12:29:10;;;;;;;32.40;13.85;;;;;;;;;;5022695;28;20358;-80
2022/12/18 12:31:39;;;;;;;36.17;14.35;;;;;;;;;;5004511;28;20026;-83
2022/12/18 12:34:14;;;;;;;32.72;14.18;;;;;;;;;;5010128;28;20148;-80
2022/12/18 12:36:58;;;;;;;30.80;14.25;;;;;;;;;;5022258;28;20018;-82
2022/12/18 12:39:28;;;;;;;34.22;14.73;;;;;;;;;;5027976;28;20044;-80
2022/12/18 12:44:44;;;;;;;37.97;15.30;;;;;;;;;;5019818;28;20096;-82
2022/12/18 12:47:15;;;;;;;30.88;13.73;;;;;;;;;;5023162;28;20026;-80
2022/12/18 12:49:47;;;;;;;31.92;14.35;;;;;;;;;;5019426;28;20100;-79
2022/12/18 12:52:14;;;;;;;32.63;14.20;;;;;;;;;;5013380;28;20045;-78
2022/12/18 12:54:41;;;;;;;31.95;13.57;;;;;;;;;;5008740;28;20042;-81
2022/12/18 12:57:13;;;;;;;30.88;14.35;;;;;;;;;;5020644;28;20049;-79
2022/12/18 12:59:51;;;;;;;30.92;13.27;;;;;;;;;;5021992;28;20034;-80
2022/12/18 13:02:36;;;;;;;30.73;13.98;;;;;;;;;;5019495;28;20036;-80
2022/12/18 13:05:08;;;;;;;32.05;14.60;;;;;;;;;;5004846;28;20030;-79
2022/12/18 13:07:41;;;;;;;29.45;12.93;;;;;;;;;;5019811;28;20030;-79
2022/12/18 13:10:19;;;;;;;28.30;13.25;;;;;;;;;;5019705;28;20025;-79
2022/12/18 13:13:19;;;;;;;29.92;14.10;;;;;;;;;;5005618;28;20029;-80
2022/12/18 13:15:47;;;;;;;24.30;11.70;;;;;;;;;;4991024;28;20485;-78
2022/12/18 13:18:22;;;;;;;26.50;12.32;;;;;;;;;;5023525;28;20121;-79
2022/12/18 13:20:48;;;;;;;32.38;12.48;;;;;;;;;;5020434;28;20030;-79
2022/12/18 13:23:23;;;;;;;33.58;15.35;;;;;;;;;;5019613;28;20030;-80
2022/12/18 13:25:50;;;;;;;35.30;15.48;;;;;;;;;;5020661;28;20488;-80
2022/12/18 13:28:17;;;;;;;35.85;16.05;;;;;;;;;;5020445;28;20049;-79
2022/12/18 13:30:51;;;;;;;34.10;14.90;;;;;;;;;;5020031;28;20036;-79
2022/12/18 13:33:17;;;;;;;34.50;15.65;;;;;;;;;;5005390;28;20040;-80
2022/12/18 13:35:46;;;;;;;36.38;16.02;;;;;;;;;;5022380;28;20149;-80
2022/12/18 13:38:24;;;;;;;39.60;16.48;;;;;;;;;;5022550;28;20037;-81
2022/12/18 13:40:50;;;;;;;33.03;15.00;;;;;;;;;;5019407;28;20045;-81
2022/12/18 13:43:19;;;;;;;34.65;15.30;;;;;;;;;;5019078;28;20073;-80
2022/12/18 13:45:50;;;;;;;30.85;14.02;;;;;;;;;;5020753;28;20096;-81
2022/12/18 13:48:18;;;;;;;33.63;14.38;;;;;;;;;;5020848;28;20052;-81
2022/12/18 13:50:48;;;;;;;29.90;13.27;;;;;;;;;;5020694;28;20518;-80
2022/12/18 13:53:22;;;;;;;27.30;13.63;;;;;;;;;;5004756;28;20045;-78
2022/12/18 13:55:49;;;;;;;33.58;15.10;;;;;;;;;;4999668;28;20058;-80
2022/12/18 13:58:15;;;;;;;35.70;15.23;;;;;;;;;;5019548;28;20388;-82
2022/12/18 14:00:43;;;;;;;35.47;15.57;;;;;;;;;;5021932;28;20469;-80
2022/12/18 14:03:22;;;;;;;37.63;16.45;;;;;;;;;;5005974;28;20089;-79
2022/12/18 14:05:52;;;;;;;36.05;15.73;;;;;;;;;;5024927;28;20049;-80
2022/12/18 14:08:19;;;;;;;36.65;15.20;;;;;;;;;;5023785;28;20248;-80
2022/12/18 14:10:46;;;;;;;40.10;16.08;;;;;;;;;;5024582;28;20419;-78
2022/12/18 14:13:16;;;;;;;42.88;17.42;;;;;;;;;;5005830;28;20057;-80
2022/12/18 14:15:44;;;;;;;35.53;16.25;;;;;;;;;;5022662;28;20495;-81
2022/12/18 14:18:29;;;;;;;34.53;15.27;;;;;;;;;;5022896;28;20095;-81
2022/12/18 14:21:02;;;;;;;38.97;15.90;;;;;;;;;;5023918;28;20117;-79
2022/12/18 14:23:28;;;;;;;38.83;16.75;;;;;;;;;;5022380;28;20026;-80
2022/12/18 14:25:54;;;;;;;33.35;15.05;;;;;;;;;;5004936;28;20033;-80
2022/12/18 14:28:21;;;;;;;35.20;15.93;;;;;;;;;;5023281;28;20125;-80
2022/12/18 14:30:48;;;;;;;34.15;14.95;;;;;;;;;;5007968;28;20428;-80
2022/12/18 14:33:24;;;;;;;33.50;13.95;;;;;;;;;;5023815;28;20033;-81
2022/12/18 14:35:57;;;;;;;32.38;13.98;;;;;;;;;;5006921;28;20026;-81